sensor_id;sensor_type;location;lat;lon;timestamp;pressure;altitude;pressure_sealevel;temperature;humidity
77092;BME280;66032;48.252;11.638;2023-02-17T00:01:21;96862.53;;;8.09;60.48
77092;BME280;66032;48.252;11.638;2023-02-17T00:03:51;96858.81;;;8.11;60.44
77092;BME280;66032;48.252;11.638;2023-02-17T00:06:24;96859.53;;;8.13;59.86
77092;BME280;66032;48.252;11.638;2023-02-17T00:08:52;96863.00;;;8.14;59.59
77092;BME280;66032;48.252;11.638;2023-02-17T00:11:20;96862.88;;;8.15;58.95
77092;BME280;66032;48.252;11.638;2023-02-17T00:13:47;96863.50;;;8.19;58.44
77092;BME280;66032;48.252;11.638;2023-02-17T00:16:17;96859.75;;;8.21;58.17
77092;BME280;66032;48.252;11.638;2023-02-17T00:18:45;96864.09;;;8.22;59.23
77092;BME280;66032;48.252;11.638;2023-02-17T00:21:15;96861.94;;;8.27;58.72
77092;BME280;66032;48.252;11.638;2023-02-17T00:23:45;96857.50;;;8.28;58.17
77092;BME280;66032;48.252;11.638;2023-02-17T00:26:14;96866.88;;;8.32;59.44
77092;BME280;66032;48.252;11.638;2023-02-17T00:28:42;96852.72;;;8.33;59.86
77092;BME280;66032;48.252;11.638;2023-02-17T00:31:14;96853.88;;;8.29;58.55
77092;BME280;66032;48.252;11.638;2023-02-17T00:33:41;96854.00;;;8.27;58.58
77092;BME280;66032;48.252;11.638;2023-02-17T00:36:14;96850.41;;;8.28;58.05
77092;BME280;66032;48.252;11.638;2023-02-17T00:38:44;96848.97;;;8.24;58.17
77092;BME280;66032;48.252;11.638;2023-02-17T00:41:14;96855.94;;;8.25;59.76
77092;BME280;66032;48.252;11.638;2023-02-17T00:43:41;96848.84;;;8.26;58.45
77092;BME280;66032;48.252;11.638;2023-02-17T00:46:08;96854.00;;;8.27;60.91
77092;BME280;66032;48.252;11.638;2023-02-17T00:48:36;96852.06;;;8.29;58.74
77092;BME280;66032;48.252;11.638;2023-02-17T00:51:03;96857.88;;;8.34;59.74
77092;BME280;66032;48.252;11.638;2023-02-17T00:53:33;96851.88;;;8.32;57.88
77092;BME280;66032;48.252;11.638;2023-02-17T00:56:01;96855.22;;;8.34;59.35
77092;BME280;66032;48.252;11.638;2023-02-17T00:58:29;96856.06;;;8.35;59.30
77092;BME280;66032;48.252;11.638;2023-02-17T01:00:57;96856.66;;;8.38;58.96
77092;BME280;66032;48.252;11.638;2023-02-17T01:03:25;96853.44;;;8.35;58.39
77092;BME280;66032;48.252;11.638;2023-02-17T01:05:53;96854.97;;;8.37;59.37
77092;BME280;66032;48.252;11.638;2023-02-17T01:08:22;96849.69;;;8.37;60.20
77092;BME280;66032;48.252;11.638;2023-02-17T01:10:50;96848.16;;;8.35;59.02
77092;BME280;66032;48.252;11.638;2023-02-17T01:13:18;96855.97;;;8.36;58.60
77092;BME280;66032;48.252;11.638;2023-02-17T01:15:49;96852.59;;;8.34;60.08
77092;BME280;66032;48.252;11.638;2023-02-17T01:18:17;96849.44;;;8.29;59.43
77092;BME280;66032;48.252;11.638;2023-02-17T01:20:45;96847.88;;;8.27;58.39
77092;BME280;66032;48.252;11.638;2023-02-17T01:23:13;96846.31;;;8.24;58.63
77092;BME280;66032;48.252;11.638;2023-02-17T01:25:43;96846.94;;;8.28;59.65
77092;BME280;66032;48.252;11.638;2023-02-17T01:28:15;96841.03;;;8.24;58.96
77092;BME280;66032;48.252;11.638;2023-02-17T01:30:46;96836.81;;;8.22;58.84
77092;BME280;66032;48.252;11.638;2023-02-17T01:33:13;96840.09;;;8.25;58.99
77092;BME280;66032;48.252;11.638;2023-02-17T01:35:40;96839.13;;;8.26;59.52
77092;BME280;66032;48.252;11.638;2023-02-17T01:38:08;96844.13;;;8.29;60.51
77092;BME280;66032;48.252;11.638;2023-02-17T01:40:35;96836.13;;;8.31;59.79
77092;BME280;66032;48.252;11.638;2023-02-17T01:43:02;96840.34;;;8.33;59.01
77092;BME280;66032;48.252;11.638;2023-02-17T01:45:36;96842.88;;;8.35;60.83
77092;BME280;66032;48.252;11.638;2023-02-17T01:48:13;96840.34;;;8.33;58.95
77092;BME280;66032;48.252;11.638;2023-02-17T01:50:46;96842.97;;;8.33;59.93
77092;BME280;66032;48.252;11.638;2023-02-17T01:53:22;96839.28;;;8.36;58.74
77092;BME280;66032;48.252;11.638;2023-02-17T01:55:52;96838.28;;;8.37;59.18
77092;BME280;66032;48.252;11.638;2023-02-17T01:58:22;96841.19;;;8.34;59.23
77092;BME280;66032;48.252;11.638;2023-02-17T02:00:51;96830.72;;;8.32;58.72
77092;BME280;66032;48.252;11.638;2023-02-17T02:03:19;96829.91;;;8.32;58.09
77092;BME280;66032;48.252;11.638;2023-02-17T02:05:47;96829.66;;;8.35;60.31
77092;BME280;66032;48.252;11.638;2023-02-17T02:08:14;96826.91;;;8.36;59.67
77092;BME280;66032;48.252;11.638;2023-02-17T02:10:42;96828.31;;;8.41;61.21
77092;BME280;66032;48.252;11.638;2023-02-17T02:13:09;96827.81;;;8.47;61.41
77092;BME280;66032;48.252;11.638;2023-02-17T02:15:48;96822.69;;;8.45;58.23
77092;BME280;66032;48.252;11.638;2023-02-17T02:27:00;96827.97;;;8.45;58.37
77092;BME280;66032;48.252;11.638;2023-02-17T02:29:51;96817.41;;;8.45;59.01
77092;BME280;66032;48.252;11.638;2023-02-17T02:41:12;96826.03;;;8.47;59.18
77092;BME280;66032;48.252;11.638;2023-02-17T02:43:41;96820.16;;;8.44;57.25
77092;BME280;66032;48.252;11.638;2023-02-17T02:46:09;96813.06;;;8.44;57.91
77092;BME280;66032;48.252;11.638;2023-02-17T02:48:36;96815.22;;;8.39;57.56
77092;BME280;66032;48.252;11.638;2023-02-17T02:56:40;96806.84;;;8.45;57.60
77092;BME280;66032;48.252;11.638;2023-02-17T02:59:29;96799.47;;;8.49;57.38
77092;BME280;66032;48.252;11.638;2023-02-17T03:02:23;96797.91;;;8.46;57.33
77092;BME280;66032;48.252;11.638;2023-02-17T03:08:25;96788.56;;;8.42;59.24
77092;BME280;66032;48.252;11.638;2023-02-17T03:10:56;96786.88;;;8.41;59.15
77092;BME280;66032;48.252;11.638;2023-02-17T03:13:24;96782.56;;;8.40;57.89
77092;BME280;66032;48.252;11.638;2023-02-17T03:15:51;96773.28;;;8.46;57.98
77092;BME280;66032;48.252;11.638;2023-02-17T03:18:18;96779.56;;;8.45;57.81
77092;BME280;66032;48.252;11.638;2023-02-17T03:20:55;96773.78;;;8.51;58.71
77092;BME280;66032;48.252;11.638;2023-02-17T03:23:24;96779.91;;;8.51;57.32
77092;BME280;66032;48.252;11.638;2023-02-17T03:25:51;96773.78;;;8.51;56.92
77092;BME280;66032;48.252;11.638;2023-02-17T03:28:19;96776.44;;;8.51;57.43
77092;BME280;66032;48.252;11.638;2023-02-17T03:30:46;96771.97;;;8.51;56.81
77092;BME280;66032;48.252;11.638;2023-02-17T03:33:14;96771.88;;;8.53;56.86
77092;BME280;66032;48.252;11.638;2023-02-17T03:35:41;96768.38;;;8.52;56.75
77092;BME280;66032;48.252;11.638;2023-02-17T03:38:08;96765.34;;;8.57;57.34
77092;BME280;66032;48.252;11.638;2023-02-17T03:40:35;96769.66;;;8.58;56.90
77092;BME280;66032;48.252;11.638;2023-02-17T03:43:02;96766.06;;;8.59;56.66
77092;BME280;66032;48.252;11.638;2023-02-17T03:45:30;96759.81;;;8.60;56.92
77092;BME280;66032;48.252;11.638;2023-02-17T03:47:57;96771.34;;;8.59;56.97
77092;BME280;66032;48.252;11.638;2023-02-17T03:50:25;96769.03;;;8.65;57.45
77092;BME280;66032;48.252;11.638;2023-02-17T03:52:52;96765.19;;;8.69;57.17
77092;BME280;66032;48.252;11.638;2023-02-17T03:55:19;96764.69;;;8.75;56.28
77092;BME280;66032;48.252;11.638;2023-02-17T03:57:46;96766.09;;;8.80;57.67
77092;BME280;66032;48.252;11.638;2023-02-17T04:00:14;96763.94;;;8.85;57.74
77092;BME280;66032;48.252;11.638;2023-02-17T04:02:41;96764.50;;;8.88;55.79
77092;BME280;66032;48.252;11.638;2023-02-17T04:05:10;96761.63;;;8.91;56.55
77092;BME280;66032;48.252;11.638;2023-02-17T04:07:37;96763.16;;;8.94;55.96
77092;BME280;66032;48.252;11.638;2023-02-17T04:10:05;96755.94;;;8.96;57.40
77092;BME280;66032;48.252;11.638;2023-02-17T04:12:35;96761.22;;;8.96;55.70
77092;BME280;66032;48.252;11.638;2023-02-17T04:15:02;96763.63;;;8.99;56.49
77092;BME280;66032;48.252;11.638;2023-02-17T04:17:29;96751.84;;;9.03;57.82
77092;BME280;66032;48.252;11.638;2023-02-17T04:19:57;96752.53;;;9.05;56.95
77092;BME280;66032;48.252;11.638;2023-02-17T04:22:24;96753.34;;;9.05;57.13
77092;BME280;66032;48.252;11.638;2023-02-17T04:24:51;96741.25;;;9.03;56.44
77092;BME280;66032;48.252;11.638;2023-02-17T04:27:18;96752.16;;;9.09;56.67
77092;BME280;66032;48.252;11.638;2023-02-17T04:29:45;96751.06;;;9.12;56.91
77092;BME280;66032;48.252;11.638;2023-02-17T04:32:12;96742.84;;;9.15;55.68
77092;BME280;66032;48.252;11.638;2023-02-17T04:34:39;96751.63;;;9.16;55.89
77092;BME280;66032;48.252;11.638;2023-02-17T04:37:07;96762.09;;;9.17;56.12
77092;BME280;66032;48.252;11.638;2023-02-17T04:39:34;96765.03;;;9.24;57.93
77092;BME280;66032;48.252;11.638;2023-02-17T04:42:01;96747.25;;;9.26;54.81
77092;BME280;66032;48.252;11.638;2023-02-17T04:44:28;96752.47;;;9.16;55.28
77092;BME280;66032;48.252;11.638;2023-02-17T04:46:55;96750.84;;;9.25;56.68
77092;BME280;66032;48.252;11.638;2023-02-17T04:49:22;96751.44;;;9.28;56.22
77092;BME280;66032;48.252;11.638;2023-02-17T04:51:50;96737.22;;;9.29;56.17
77092;BME280;66032;48.252;11.638;2023-02-17T04:54:17;96738.66;;;9.33;54.58
77092;BME280;66032;48.252;11.638;2023-02-17T04:56:44;96738.78;;;9.32;55.29
77092;BME280;66032;48.252;11.638;2023-02-17T04:59:11;96731.81;;;9.31;54.66
77092;BME280;66032;48.252;11.638;2023-02-17T05:01:38;96738.06;;;9.30;54.14
77092;BME280;66032;48.252;11.638;2023-02-17T05:04:05;96729.03;;;9.32;55.44
77092;BME280;66032;48.252;11.638;2023-02-17T05:06:33;96727.09;;;9.34;56.94
77092;BME280;66032;48.252;11.638;2023-02-17T05:09:00;96726.81;;;9.37;58.17
77092;BME280;66032;48.252;11.638;2023-02-17T05:11:27;96724.84;;;9.30;54.84
77092;BME280;66032;48.252;11.638;2023-02-17T05:13:54;96726.50;;;9.31;55.27
77092;BME280;66032;48.252;11.638;2023-02-17T05:16:21;96720.66;;;9.27;54.98
77092;BME280;66032;48.252;11.638;2023-02-17T05:18:49;96723.56;;;9.24;55.35
77092;BME280;66032;48.252;11.638;2023-02-17T05:21:16;96725.38;;;9.24;55.56
77092;BME280;66032;48.252;11.638;2023-02-17T05:23:43;96725.13;;;9.27;56.46
77092;BME280;66032;48.252;11.638;2023-02-17T05:26:10;96719.09;;;9.25;56.40
77092;BME280;66032;48.252;11.638;2023-02-17T05:28:38;96720.78;;;9.26;55.47
77092;BME280;66032;48.252;11.638;2023-02-17T05:31:05;96720.06;;;9.24;55.42
77092;BME280;66032;48.252;11.638;2023-02-17T05:33:32;96725.38;;;9.24;54.53
77092;BME280;66032;48.252;11.638;2023-02-17T05:36:04;96729.69;;;9.25;55.43
77092;BME280;66032;48.252;11.638;2023-02-17T05:38:32;96722.34;;;9.28;57.82
77092;BME280;66032;48.252;11.638;2023-02-17T05:41:00;96728.19;;;9.32;57.05
77092;BME280;66032;48.252;11.638;2023-02-17T05:43:27;96724.84;;;9.30;56.23
77092;BME280;66032;48.252;11.638;2023-02-17T05:45:54;96728.78;;;9.35;59.92
77092;BME280;66032;48.252;11.638;2023-02-17T05:48:22;96726.50;;;9.31;55.69
77092;BME280;66032;48.252;11.638;2023-02-17T05:50:49;96732.41;;;9.34;56.34
77092;BME280;66032;48.252;11.638;2023-02-17T05:53:16;96732.28;;;9.36;60.67
77092;BME280;66032;48.252;11.638;2023-02-17T05:55:43;96729.44;;;9.28;56.64
77092;BME280;66032;48.252;11.638;2023-02-17T05:58:13;96721.34;;;9.29;57.09
77092;BME280;66032;48.252;11.638;2023-02-17T06:00:41;96730.00;;;9.31;58.48
77092;BME280;66032;48.252;11.638;2023-02-17T06:03:08;96734.84;;;9.26;57.92
77092;BME280;66032;48.252;11.638;2023-02-17T06:05:35;96740.03;;;9.28;60.57
77092;BME280;66032;48.252;11.638;2023-02-17T06:08:02;96737.50;;;9.26;59.85
77092;BME280;66032;48.252;11.638;2023-02-17T06:10:30;96741.56;;;9.30;57.71
77092;BME280;66032;48.252;11.638;2023-02-17T06:12:57;96751.03;;;9.33;59.49
77092;BME280;66032;48.252;11.638;2023-02-17T06:15:24;96744.66;;;9.35;57.62
77092;BME280;66032;48.252;11.638;2023-02-17T06:17:51;96743.81;;;9.35;57.68
77092;BME280;66032;48.252;11.638;2023-02-17T06:20:18;96749.84;;;9.37;58.71
77092;BME280;66032;48.252;11.638;2023-02-17T06:22:46;96750.13;;;9.43;57.98
77092;BME280;66032;48.252;11.638;2023-02-17T06:25:13;96761.88;;;9.50;59.96
77092;BME280;66032;48.252;11.638;2023-02-17T06:27:41;96764.97;;;9.56;59.27
77092;BME280;66032;48.252;11.638;2023-02-17T06:30:10;96758.69;;;9.57;59.75
77092;BME280;66032;48.252;11.638;2023-02-17T06:32:37;96757.47;;;9.61;61.30
77092;BME280;66032;48.252;11.638;2023-02-17T06:35:05;96755.50;;;9.63;62.17
77092;BME280;66032;48.252;11.638;2023-02-17T06:37:32;96745.47;;;9.57;62.48
77092;BME280;66032;48.252;11.638;2023-02-17T06:39:59;96749.53;;;9.61;63.81
77092;BME280;66032;48.252;11.638;2023-02-17T06:42:26;96735.84;;;9.56;64.05
77092;BME280;66032;48.252;11.638;2023-02-17T06:44:53;96745.94;;;9.62;64.50
77092;BME280;66032;48.252;11.638;2023-02-17T06:47:21;96744.66;;;9.66;64.23
77092;BME280;66032;48.252;11.638;2023-02-17T06:49:48;96737.97;;;9.62;64.47
77092;BME280;66032;48.252;11.638;2023-02-17T06:52:15;96743.56;;;9.68;63.67
77092;BME280;66032;48.252;11.638;2023-02-17T06:54:42;96735.75;;;9.67;63.77
77092;BME280;66032;48.252;11.638;2023-02-17T06:57:10;96740.22;;;9.66;63.17
77092;BME280;66032;48.252;11.638;2023-02-17T06:59:37;96741.50;;;9.72;63.40
77092;BME280;66032;48.252;11.638;2023-02-17T07:02:04;96743.78;;;9.86;62.47
77092;BME280;66032;48.252;11.638;2023-02-17T07:04:32;96753.84;;;9.92;62.23
77092;BME280;66032;48.252;11.638;2023-02-17T07:06:59;96744.66;;;9.96;61.33
77092;BME280;66032;48.252;11.638;2023-02-17T07:09:26;96742.88;;;10.06;60.66
77092;BME280;66032;48.252;11.638;2023-02-17T07:11:53;96741.84;;;10.18;61.75
77092;BME280;66032;48.252;11.638;2023-02-17T07:14:20;96748.00;;;10.29;60.32
77092;BME280;66032;48.252;11.638;2023-02-17T07:16:50;96754.00;;;10.40;60.57
77092;BME280;66032;48.252;11.638;2023-02-17T07:19:18;96743.69;;;10.47;59.45
77092;BME280;66032;48.252;11.638;2023-02-17T07:21:45;96753.91;;;10.51;59.52
77092;BME280;66032;48.252;11.638;2023-02-17T07:24:12;96752.38;;;10.58;59.74
77092;BME280;66032;48.252;11.638;2023-02-17T07:26:40;96758.50;;;10.59;59.63
77092;BME280;66032;48.252;11.638;2023-02-17T07:29:07;96760.19;;;10.60;60.11
77092;BME280;66032;48.252;11.638;2023-02-17T07:31:35;96761.88;;;10.61;58.74
77092;BME280;66032;48.252;11.638;2023-02-17T07:34:03;96751.69;;;10.76;58.93
77092;BME280;66032;48.252;11.638;2023-02-17T07:36:30;96762.31;;;10.95;58.39
77092;BME280;66032;48.252;11.638;2023-02-17T07:38:58;96758.53;;;11.17;58.62
77092;BME280;66032;48.252;11.638;2023-02-17T07:41:29;96759.94;;;11.21;57.98
77092;BME280;66032;48.252;11.638;2023-02-17T07:44:06;96761.31;;;11.25;58.08
77092;BME280;66032;48.252;11.638;2023-02-17T07:46:34;96753.59;;;11.41;57.62
77092;BME280;66032;48.252;11.638;2023-02-17T07:49:01;96764.22;;;11.41;57.74
77092;BME280;66032;48.252;11.638;2023-02-17T07:51:29;96756.69;;;11.46;57.64
77092;BME280;66032;48.252;11.638;2023-02-17T07:53:56;96759.59;;;11.53;57.98
77092;BME280;66032;48.252;11.638;2023-02-17T07:56:23;96766.00;;;11.50;58.15
77092;BME280;66032;48.252;11.638;2023-02-17T07:58:52;96761.69;;;11.39;58.01
77092;BME280;66032;48.252;11.638;2023-02-17T08:01:21;96772.44;;;11.57;58.41
77092;BME280;66032;48.252;11.638;2023-02-17T08:03:49;96764.34;;;11.49;57.54
77092;BME280;66032;48.252;11.638;2023-02-17T08:06:22;96768.53;;;11.52;57.79
77092;BME280;66032;48.252;11.638;2023-02-17T08:08:51;96763.38;;;11.50;57.82
77092;BME280;66032;48.252;11.638;2023-02-17T08:11:39;96759.47;;;11.45;58.11
77092;BME280;66032;48.252;11.638;2023-02-17T08:14:28;96765.31;;;11.48;58.38
77092;BME280;66032;48.252;11.638;2023-02-17T08:16:56;96757.91;;;11.52;57.90
77092;BME280;66032;48.252;11.638;2023-02-17T08:19:24;96768.22;;;11.64;57.94
77092;BME280;66032;48.252;11.638;2023-02-17T08:22:05;96769.03;;;11.65;57.74
77092;BME280;66032;48.252;11.638;2023-02-17T08:24:32;96775.44;;;11.91;57.42
77092;BME280;66032;48.252;11.638;2023-02-17T08:26:59;96776.63;;;12.06;57.05
77092;BME280;66032;48.252;11.638;2023-02-17T08:29:26;96777.09;;;12.29;56.96
77092;BME280;66032;48.252;11.638;2023-02-17T08:31:53;96781.47;;;12.48;57.98
77092;BME280;66032;48.252;11.638;2023-02-17T08:34:21;96776.69;;;12.51;57.19
77092;BME280;66032;48.252;11.638;2023-02-17T08:36:48;96780.63;;;12.47;57.99
77092;BME280;66032;48.252;11.638;2023-02-17T08:39:17;96773.50;;;12.66;57.97
77092;BME280;66032;48.252;11.638;2023-02-17T08:41:44;96773.00;;;12.62;58.27
77092;BME280;66032;48.252;11.638;2023-02-17T08:44:15;96770.78;;;12.58;58.04
77092;BME280;66032;48.252;11.638;2023-02-17T08:46:43;96775.59;;;12.89;57.71
77092;BME280;66032;48.252;11.638;2023-02-17T08:49:15;96772.50;;;12.94;56.98
77092;BME280;66032;48.252;11.638;2023-02-17T08:51:43;96768.00;;;13.12;56.55
77092;BME280;66032;48.252;11.638;2023-02-17T08:54:11;96778.06;;;13.18;55.67
77092;BME280;66032;48.252;11.638;2023-02-17T08:56:40;96784.91;;;13.21;55.53
77092;BME280;66032;48.252;11.638;2023-02-17T08:59:09;96796.03;;;13.07;55.35
77092;BME280;66032;48.252;11.638;2023-02-17T09:01:37;96795.53;;;13.03;55.25
77092;BME280;66032;48.252;11.638;2023-02-17T09:04:07;96801.78;;;12.67;56.93
77092;BME280;66032;48.252;11.638;2023-02-17T09:06:40;96805.94;;;12.51;58.49
77092;BME280;66032;48.252;11.638;2023-02-17T09:09:11;96816.72;;;12.50;59.18
77092;BME280;66032;48.252;11.638;2023-02-17T09:11:39;96790.59;;;12.18;62.44
77092;BME280;66032;48.252;11.638;2023-02-17T09:14:07;96809.38;;;11.97;61.76
77092;BME280;66032;48.252;11.638;2023-02-17T09:16:35;96793.75;;;11.94;62.44
77092;BME280;66032;48.252;11.638;2023-02-17T09:19:03;96802.16;;;11.90;62.21
77092;BME280;66032;48.252;11.638;2023-02-17T09:21:30;96804.28;;;11.76;62.96
77092;BME280;66032;48.252;11.638;2023-02-17T09:23:57;96794.72;;;11.93;61.60
77092;BME280;66032;48.252;11.638;2023-02-17T09:26:25;96796.78;;;12.09;62.11
77092;BME280;66032;48.252;11.638;2023-02-17T09:28:52;96788.16;;;12.25;61.04
77092;BME280;66032;48.252;11.638;2023-02-17T09:31:23;96792.00;;;12.40;60.15
77092;BME280;66032;48.252;11.638;2023-02-17T09:33:51;96783.53;;;12.54;60.44
77092;BME280;66032;48.252;11.638;2023-02-17T09:36:22;96788.91;;;12.72;59.33
77092;BME280;66032;48.252;11.638;2023-02-17T09:38:50;96798.41;;;12.92;58.83
77092;BME280;66032;48.252;11.638;2023-02-17T09:41:20;96791.97;;;12.95;58.69
77092;BME280;66032;48.252;11.638;2023-02-17T09:43:50;96786.88;;;13.19;58.17
77092;BME280;66032;48.252;11.638;2023-02-17T09:46:34;96794.47;;;13.32;57.91
77092;BME280;66032;48.252;11.638;2023-02-17T09:49:12;96800.78;;;13.74;56.75
77092;BME280;66032;48.252;11.638;2023-02-17T09:51:47;96795.91;;;13.87;56.31
77092;BME280;66032;48.252;11.638;2023-02-17T09:54:43;96795.94;;;13.95;55.80
77092;BME280;66032;48.252;11.638;2023-02-17T09:57:13;96796.13;;;14.28;55.03
77092;BME280;66032;48.252;11.638;2023-02-17T09:59:50;96797.47;;;14.66;54.25
77092;BME280;66032;48.252;11.638;2023-02-17T10:02:37;96796.28;;;15.67;51.95
77092;BME280;66032;48.252;11.638;2023-02-17T10:05:08;96792.25;;;16.51;50.14
77092;BME280;66032;48.252;11.638;2023-02-17T10:07:53;96791.91;;;16.62;49.54
77092;BME280;66032;48.252;11.638;2023-02-17T10:10:28;96782.75;;;17.33;47.97
77092;BME280;66032;48.252;11.638;2023-02-17T10:12:59;96790.50;;;17.51;47.59
77092;BME280;66032;48.252;11.638;2023-02-17T10:15:34;96772.47;;;17.67;47.29
77092;BME280;66032;48.252;11.638;2023-02-17T10:18:13;96778.38;;;17.40;47.34
77092;BME280;66032;48.252;11.638;2023-02-17T10:20:56;96780.41;;;17.38;47.21
77092;BME280;66032;48.252;11.638;2023-02-17T10:23:27;96776.56;;;17.32;47.22
77092;BME280;66032;48.252;11.638;2023-02-17T10:26:30;96776.94;;;17.06;48.14
77092;BME280;66032;48.252;11.638;2023-02-17T10:29:13;96758.94;;;16.92;47.95
77092;BME280;66032;48.252;11.638;2023-02-17T10:32:21;96756.16;;;17.08;47.44
77092;BME280;66032;48.252;11.638;2023-02-17T10:35:15;96768.72;;;17.31;47.02
77092;BME280;66032;48.252;11.638;2023-02-17T10:37:45;96759.44;;;16.96;47.92
77092;BME280;66032;48.252;11.638;2023-02-17T10:40:25;96760.50;;;17.10;47.87
77092;BME280;66032;48.252;11.638;2023-02-17T10:43:01;96758.91;;;16.69;48.88
77092;BME280;66032;48.252;11.638;2023-02-17T10:45:41;96755.00;;;17.26;47.88
77092;BME280;66032;48.252;11.638;2023-02-17T10:48:19;96757.88;;;17.01;48.19
77092;BME280;66032;48.252;11.638;2023-02-17T10:50:47;96774.38;;;17.13;48.11
77092;BME280;66032;48.252;11.638;2023-02-17T10:53:21;96753.72;;;17.22;48.19
77092;BME280;66032;48.252;11.638;2023-02-17T11:01:06;96763.59;;;17.44;47.15
77092;BME280;66032;48.252;11.638;2023-02-17T11:03:34;96753.09;;;17.34;47.14
77092;BME280;66032;48.252;11.638;2023-02-17T11:06:14;96748.19;;;17.61;46.78
77092;BME280;66032;48.252;11.638;2023-02-17T11:08:49;96750.78;;;17.54;46.64
77092;BME280;66032;48.252;11.638;2023-02-17T11:11:21;96753.00;;;17.73;46.38
77092;BME280;66032;48.252;11.638;2023-02-17T11:16:35;96744.56;;;17.54;46.47
77092;BME280;66032;48.252;11.638;2023-02-17T11:19:17;96747.31;;;17.68;46.74
77092;BME280;66032;48.252;11.638;2023-02-17T11:21:46;96740.19;;;17.75;46.11
77092;BME280;66032;48.252;11.638;2023-02-17T11:24:13;96739.69;;;17.57;46.90
77092;BME280;66032;48.252;11.638;2023-02-17T11:26:40;96741.69;;;17.63;46.47
77092;BME280;66032;48.252;11.638;2023-02-17T11:29:10;96751.41;;;17.64;46.09
77092;BME280;66032;48.252;11.638;2023-02-17T11:31:41;96736.97;;;17.65;46.01
77092;BME280;66032;48.252;11.638;2023-02-17T11:34:19;96738.03;;;17.56;45.96
77092;BME280;66032;48.252;11.638;2023-02-17T11:37:19;96729.38;;;17.69;45.62
77092;BME280;66032;48.252;11.638;2023-02-17T11:39:52;96717.75;;;17.54;46.06
77092;BME280;66032;48.252;11.638;2023-02-17T11:42:28;96721.19;;;17.48;46.29
77092;BME280;66032;48.252;11.638;2023-02-17T11:44:58;96720.63;;;17.90;45.81
77092;BME280;66032;48.252;11.638;2023-02-17T11:55:49;96713.06;;;17.33;46.69
77092;BME280;66032;48.252;11.638;2023-02-17T12:29:04;96688.41;;;16.46;49.18
77092;BME280;66032;48.252;11.638;2023-02-17T12:32:16;96694.84;;;16.29;49.58
77092;BME280;66032;48.252;11.638;2023-02-17T12:34:41;96697.19;;;16.24;50.09
77092;BME280;66032;48.252;11.638;2023-02-17T12:37:18;96695.94;;;16.43;49.53
77092;BME280;66032;48.252;11.638;2023-02-17T12:40:42;96684.53;;;16.18;50.09
77092;BME280;66032;48.252;11.638;2023-02-17T12:42:53;96688.44;;;15.99;51.05
77092;BME280;66032;48.252;11.638;2023-02-17T12:45:26;96689.88;;;16.18;50.50
77092;BME280;66032;48.252;11.638;2023-02-17T12:48:00;96698.06;;;16.16;50.83
77092;BME280;66032;48.252;11.638;2023-02-17T12:50:35;96695.63;;;16.38;50.21
77092;BME280;66032;48.252;11.638;2023-02-17T12:53:44;96698.06;;;16.16;50.49
77092;BME280;66032;48.252;11.638;2023-02-17T12:58:53;96688.59;;;16.06;50.84
77092;BME280;66032;48.252;11.638;2023-02-17T13:01:25;96692.25;;;16.13;50.48
77092;BME280;66032;48.252;11.638;2023-02-17T13:03:58;96690.13;;;15.92;51.17
77092;BME280;66032;48.252;11.638;2023-02-17T13:06:32;96686.34;;;15.78;51.32
77092;BME280;66032;48.252;11.638;2023-02-17T13:14:52;96690.41;;;15.26;53.31
77092;BME280;66032;48.252;11.638;2023-02-17T13:22:37;96682.25;;;15.11;53.77
77092;BME280;66032;48.252;11.638;2023-02-17T13:25:05;96683.41;;;14.92;54.49
77092;BME280;66032;48.252;11.638;2023-02-17T13:27:34;96689.41;;;14.78;54.95
77092;BME280;66032;48.252;11.638;2023-02-17T13:33:02;96670.88;;;14.60;55.60
77092;BME280;66032;48.252;11.638;2023-02-17T13:35:35;96680.88;;;14.58;55.91
77092;BME280;66032;48.252;11.638;2023-02-17T13:38:03;96675.19;;;14.53;56.15
77092;BME280;66032;48.252;11.638;2023-02-17T13:40:41;96674.13;;;14.38;56.43
77092;BME280;66032;48.252;11.638;2023-02-17T13:43:16;96682.22;;;14.54;55.82
77092;BME280;66032;48.252;11.638;2023-02-17T13:45:51;96680.19;;;14.56;56.22
77092;BME280;66032;48.252;11.638;2023-02-17T13:50:52;96680.38;;;14.55;56.03
77092;BME280;66032;48.252;11.638;2023-02-17T13:53:27;96682.84;;;14.48;56.72
77092;BME280;66032;48.252;11.638;2023-02-17T13:56:00;96686.00;;;14.43;56.70
77092;BME280;66032;48.252;11.638;2023-02-17T13:58:31;96688.09;;;14.32;57.36
77092;BME280;66032;48.252;11.638;2023-02-17T14:01:00;96696.78;;;14.34;56.81
77092;BME280;66032;48.252;11.638;2023-02-17T14:06:17;96696.72;;;14.18;57.58
77092;BME280;66032;48.252;11.638;2023-02-17T14:08:46;96699.25;;;14.19;57.54
77092;BME280;66032;48.252;11.638;2023-02-17T14:11:19;96704.28;;;14.22;57.34
77092;BME280;66032;48.252;11.638;2023-02-17T14:13:49;96692.41;;;14.17;57.35
77092;BME280;66032;48.252;11.638;2023-02-17T14:19:19;96712.00;;;13.99;57.75
77092;BME280;66032;48.252;11.638;2023-02-17T14:21:57;96709.19;;;14.09;57.46
77092;BME280;66032;48.252;11.638;2023-02-17T14:24:25;96707.88;;;14.05;57.51
77092;BME280;66032;48.252;11.638;2023-02-17T14:26:59;96715.38;;;14.10;57.16
77092;BME280;66032;48.252;11.638;2023-02-17T14:29:42;96713.81;;;13.99;57.47
77092;BME280;66032;48.252;11.638;2023-02-17T14:32:44;96709.66;;;13.96;58.96
77092;BME280;66032;48.252;11.638;2023-02-17T14:37:41;96697.44;;;13.86;60.35
77092;BME280;66032;48.252;11.638;2023-02-17T14:40:16;96711.25;;;13.89;59.49
77092;BME280;66032;48.252;11.638;2023-02-17T14:42:44;96695.22;;;13.81;59.99
77092;BME280;66032;48.252;11.638;2023-02-17T14:45:12;96700.59;;;13.89;59.21
77092;BME280;66032;48.252;11.638;2023-02-17T14:47:41;96701.09;;;13.85;59.44
77092;BME280;66032;48.252;11.638;2023-02-17T14:50:09;96697.41;;;13.78;59.05
77092;BME280;66032;48.252;11.638;2023-02-17T14:52:55;96695.44;;;13.54;59.71
77092;BME280;66032;48.252;11.638;2023-02-17T14:57:59;96696.72;;;13.50;59.50